ジッダ の空港の天気 - METARとTAF

キング・アブドゥルアズィーズ国際空港(ジッダ) ( OEJN / JED ) - サウジアラビア ジッダ
飛行場実況気象(Metar)
観測時間07/20 14:00 AST (07/20 11:00 UTC)
風向・風速西北西 5m/s
視程10km以上
天気現象
なし
気温38℃
湿度51%
気圧1001hPa
METAROEJN 201100Z 30010KT CAVOK 38/26 Q1001 NOSIG
過去の天気等 Google飛行場航空写真 Wunderground天気予報

過去48時間のMETAR

飛行場予報(TAF)
発表時間: 7/20 08:00 AST (7/20 05:00 UTC)
予報対象時間: 20日9時 AST ~ 21日15時 AST
風向・風速北西 5m/s 瞬間風速 10m/s
視程7000m
少しの雲 雲底高度 1220m
全天の4割程度の雲 雲底高度 3050m
21日3時 AST ~ 21日5時 AST に徐々に
風向・風速北北東 4m/s
21日9時 AST ~ 21日11時 AST に徐々に
風向・風速北西 5m/s 瞬間風速 10m/s
TAF OEJN 200500Z 2006/2112 32010G20KT 7000 FEW040 SCT100
BECMG 2100/2102 02008KT
BECMG 2106/2108 32010G20KT